Frederike Selmer — V7QY8 — position and weather

sailwx.info

Track history (hours):
 
Tides and Currents Weather Stations Pressure Air Temp Water Temp Dewpoint Dewpoint Depression Visibility Wind Speed Wind Dir Waves Ship Positions

Frederike Selmer

Last reported at 2016-Feb-02 20:28 UTC. Time now 2016-Feb-12 14:11 UTC.
Position N 01°16' E 104°11'.
Warning: this ship's position is 9 days out of date.

Length 188 m; draft 12.9 m.

Type: Cargo ship. MMSI: 538090377.

Date/timePositionNaut miles runAvg speedWind from/ knotsBaromVisibWave heightAir tempDewpointWater temp
2016-Feb-02 20:28N 01°16' E 104°11'9 9.9
2016-Feb-02 19:33N 01°15' E 104°02'6 6.1
2016-Feb-02 18:33N 01°17' E 103°56'0 0.2
2016-Feb-02 17:33N 01°16' E 103°56'0 0.0
2016-Feb-02 16:33N 01°16' E 103°56'0 0.0
2016-Feb-02 15:33N 01°16' E 103°56'0 0.0
2016-Feb-02 14:33N 01°16' E 103°56'0 0.0
2016-Feb-02 13:31N 01°16' E 103°56'0 0.0
2016-Feb-02 12:31N 01°16' E 103°56'0 0.0
2016-Feb-02 11:33N 01°16' E 103°56'0 0.0
2016-Feb-02 10:33N 01°16' E 103°56'0 0.1
2016-Feb-02 09:33N 01°16' E 103°56'0 0.0
2016-Feb-02 08:33N 01°16' E 103°56'0 0.0
2016-Feb-02 07:33N 01°16' E 103°56'0 0.0
2016-Feb-02 06:33N 01°16' E 103°56'2 1.7
2016-Feb-02 05:29N 01°15' E 103°57'5 5.1
2016-Feb-02 04:33N 01°12' E 103°54'  
Track history (hours):
 
Tides and Currents Weather Stations Pressure Air Temp Water Temp Dewpoint Dewpoint Depression Visibility Wind Speed Wind Dir Waves Ship Positions

Frederike Selmer

Last reported at 2016-Feb-02 20:28 UTC. Time now 2016-Feb-12 14:11 UTC.
Position N 01°16' E 104°11'.
Warning: this ship's position is 9 days out of date.

Length 188 m; draft 12.9 m.

Type: Cargo ship. MMSI: 538090377.

Date/timePositionNaut miles runAvg speedWind from/ knotsBaromVisibWave heightAir tempDewpointWater temp
2016-Feb-02 20:28N 01°16' E 104°11'9 9.9
2016-Feb-02 19:33N 01°15' E 104°02'6 6.1
2016-Feb-02 18:33N 01°17' E 103°56'0 0.2
2016-Feb-02 17:33N 01°16' E 103°56'0 0.0
2016-Feb-02 16:33N 01°16' E 103°56'0 0.0
2016-Feb-02 15:33N 01°16' E 103°56'0 0.0
2016-Feb-02 14:33N 01°16' E 103°56'0 0.0
2016-Feb-02 13:31N 01°16' E 103°56'0 0.0
2016-Feb-02 12:31N 01°16' E 103°56'0 0.0
2016-Feb-02 11:33N 01°16' E 103°56'0 0.0
2016-Feb-02 10:33N 01°16' E 103°56'0 0.1
2016-Feb-02 09:33N 01°16' E 103°56'0 0.0
2016-Feb-02 08:33N 01°16' E 103°56'0 0.0
2016-Feb-02 07:33N 01°16' E 103°56'0 0.0
2016-Feb-02 06:33N 01°16' E 103°56'2 1.7
2016-Feb-02 05:29N 01°15' E 103°57'5 5.1
2016-Feb-02 04:33N 01°12' E 103°54'  

Dump ship's entire track history